createdAt,value
2022-08-22T00:00:06.916Z,1010.57
2022-08-22T00:15:02.977Z,1010.57
2022-08-22T00:30:00.660Z,1010.57
2022-08-22T00:44:59.807Z,1010.43
2022-08-22T01:00:29.057Z,1010.3
2022-08-22T01:14:59.757Z,1010.26
2022-08-22T01:30:03.227Z,1010.1
2022-08-22T01:44:59.603Z,1010.06
2022-08-22T02:00:04.969Z,1010.06
2022-08-22T02:15:05.772Z,1010.03
2022-08-22T02:30:06.194Z,1009.96
2022-08-22T02:45:03.821Z,1009.89
2022-08-22T03:00:02.894Z,1009.82
2022-08-22T03:15:05.208Z,1009.69
2022-08-22T03:30:01.420Z,1009.72
2022-08-22T03:45:01.962Z,1009.72
2022-08-22T04:00:01.115Z,1009.79
2022-08-22T04:15:03.082Z,1009.93
2022-08-22T04:30:03.700Z,1009.99
2022-08-22T04:45:06.074Z,1010.03
2022-08-22T05:00:05.372Z,1010.13
2022-08-22T05:15:01.772Z,1010.13
2022-08-22T05:30:03.889Z,1010.06
2022-08-22T05:45:01.574Z,1010.2
2022-08-22T06:00:02.336Z,1010.06
2022-08-22T06:15:11.825Z,1010.13
2022-08-22T06:30:06.129Z,1010.1
2022-08-22T06:45:03.538Z,1010.1
2022-08-22T07:00:02.722Z,1009.99
2022-08-22T07:15:01.908Z,1009.99
2022-08-22T07:30:04.140Z,1009.93
2022-08-22T07:45:06.245Z,1009.86
2022-08-22T08:00:06.666Z,1009.89
2022-08-22T08:15:02.434Z,1009.86
2022-08-22T08:30:04.292Z,1009.79
2022-08-22T08:45:06.085Z,1009.76
2022-08-22T09:00:06.650Z,1009.66
2022-08-22T09:15:02.829Z,1009.62
2022-08-22T09:30:01.938Z,1009.59
2022-08-22T09:45:04.034Z,1009.45
2022-08-22T10:00:00.298Z,1009.35
2022-08-22T10:14:59.443Z,1009.35
2022-08-22T10:30:05.716Z,1009.25
2022-08-22T10:45:11.981Z,1009.15
2022-08-22T11:00:07.818Z,1009.18
2022-08-22T11:15:44.799Z,1008.94
2022-08-22T11:30:03.301Z,1008.84
2022-08-22T11:45:01.030Z,1008.77
2022-08-22T12:00:01.395Z,1008.61
2022-08-22T12:15:00.177Z,1008.54
2022-08-22T12:30:01.946Z,1008.57
2022-08-22T12:45:00.685Z,1008.5
2022-08-22T13:00:05.578Z,1008.54
2022-08-22T13:15:05.626Z,1008.67
2022-08-22T13:30:02.956Z,1008.84
2022-08-22T13:45:04.682Z,1008.81
2022-08-22T14:00:05.910Z,1008.84
2022-08-22T14:15:03.846Z,1008.94
2022-08-22T14:30:01.941Z,1009.01
2022-08-22T14:45:06.548Z,1009.01
2022-08-22T15:00:04.161Z,1009.01
2022-08-22T15:15:05.165Z,1009.18
2022-08-22T15:30:06.193Z,1009.01
2022-08-22T15:45:01.233Z,1008.98
2022-08-22T15:59:59.346Z,1009.01
2022-08-22T16:15:06.423Z,1008.98
2022-08-22T16:30:04.495Z,1009.05
2022-08-22T16:44:59.415Z,1009.25
2022-08-22T17:00:03.511Z,1009.35
2022-08-22T17:15:03.030Z,1009.42
2022-08-22T17:30:04.543Z,1009.52
2022-08-22T17:45:00.764Z,1009.62
2022-08-22T18:00:02.962Z,1009.72
2022-08-22T18:15:06.970Z,1009.96
2022-08-22T18:30:05.064Z,1010.1
2022-08-22T18:44:59.794Z,1010.26
2022-08-22T19:00:06.487Z,1010.47
2022-08-22T19:15:05.186Z,1010.57
2022-08-22T19:29:59.402Z,1010.6
2022-08-22T19:45:00.211Z,1010.74
2022-08-22T20:00:00.989Z,1010.81
2022-08-22T20:15:00.303Z,1010.77
2022-08-22T20:30:02.621Z,1010.84
2022-08-22T20:45:12.286Z,1010.84
2022-08-22T21:00:21.020Z,1010.81
2022-08-22T21:15:03.812Z,1010.91
2022-08-22T21:30:00.992Z,1010.81
2022-08-22T21:45:01.423Z,1010.74
2022-08-22T22:00:06.847Z,1010.77
2022-08-22T22:15:03.410Z,1010.87
2022-08-22T22:30:02.882Z,1010.91
2022-08-22T22:45:00.801Z,1010.87
2022-08-22T23:00:01.845Z,1010.74
2022-08-22T23:15:05.878Z,1010.77
2022-08-22T23:30:06.941Z,1010.77
2022-08-22T23:45:00.482Z,1010.81
